Time;durP1;ratioP1;P1;durP2;ratioP2;P2;SDS_P1;SDS_P2;PMS_P1;PMS_P2;Temp;Humidity;BMP_temperature;BMP_pressure;BME280_temperature;BME280_humidity;BME280_pressure;Samples;Min_cycle;Max_cycle;Signal;HPM_P1;HPM_P2
2023/12/10 00:00:15;;;;;;;;;;;8.80;99.90;;;;;;2615897;54;19939;-70
2023/12/10 00:02:45;;;;;;;;;;;8.90;99.90;;;;;;2616098;54;19935;-70
2023/12/10 00:05:14;;;;;;;;;;;8.90;99.90;;;;;;2616138;54;19939;-70
2023/12/10 00:07:47;;;;;;;;;;;8.90;99.90;;;;;;2616103;47;19946;-70
2023/12/10 00:10:17;;;;;;;;;;;8.90;99.90;;;;;;2615923;54;19946;-71
2023/12/10 00:12:46;;;;;;;;;;;8.80;99.90;;;;;;2615015;54;19969;-70
2023/12/10 00:15:16;;;;;;;;;;;8.80;99.90;;;;;;2615815;54;19946;-71
2023/12/10 00:17:46;;;;;;;;;;;8.80;99.90;;;;;;2616147;54;19945;-71
2023/12/10 00:20:16;;;;;;;;;;;8.80;99.90;;;;;;2615515;54;19955;-71
2023/12/10 00:22:48;;;;;;;;;;;8.80;99.90;;;;;;2614988;54;19946;-71
2023/12/10 00:25:18;;;;;;;;;;;8.80;99.90;;;;;;2616056;54;19954;-71
2023/12/10 00:27:47;;;;;;;;;;;8.80;99.90;;;;;;2615890;54;19947;-70
2023/12/10 00:30:18;;;;;;;;;;;8.80;99.90;;;;;;2615239;54;19942;-71
2023/12/10 00:32:47;;;;;;;;;;;8.80;99.90;;;;;;2616414;52;19947;-71
2023/12/10 00:35:17;;;;;;;;;;;8.80;99.90;;;;;;2615167;54;20033;-71
2023/12/10 00:37:49;;;;;;;;;;;8.70;99.90;;;;;;2614839;54;20441;-71
2023/12/10 00:40:19;;;;;;;;;;;8.70;99.90;;;;;;2616135;54;19938;-70
2023/12/10 00:42:49;;;;;;;;;;;8.80;99.90;;;;;;2615902;54;19949;-71
2023/12/10 00:45:18;;;;;;;;;;;8.80;99.90;;;;;;2615491;47;19947;-71
2023/12/10 00:47:48;;;;;;;;;;;8.80;99.90;;;;;;2616112;39;20566;-71
2023/12/10 00:50:18;;;;;;;;;;;8.90;99.90;;;;;;2614634;46;20015;-73
2023/12/10 00:52:50;;;;;;;;;;;8.80;99.90;;;;;;2615570;54;19946;-71
2023/12/10 00:55:20;;;;;;;;;;;8.90;99.90;;;;;;2615395;47;19954;-70
2023/12/10 00:57:49;;;;;;;;;;;8.90;99.90;;;;;;2614844;47;20458;-70
2023/12/10 01:00:20;;;;;;;;;;;8.90;99.90;;;;;;2615514;54;19974;-70
2023/12/10 01:02:50;;;;;;;;;;;8.90;99.90;;;;;;2615605;54;19997;-70
2023/12/10 01:05:20;;;;;;;;;;;8.90;99.90;;;;;;2615586;47;20665;-70
2023/12/10 01:07:52;;;;;;;;;;;8.90;99.90;;;;;;2616428;47;19950;-70
2023/12/10 01:10:22;;;;;;;;;;;9.00;99.90;;;;;;2615838;54;20441;-70
2023/12/10 01:12:51;;;;;;;;;;;9.00;99.90;;;;;;2615444;54;19939;-69
2023/12/10 01:15:29;;;;;;;;;;;9.00;99.90;;;;;;2614783;54;20450;-70
2023/12/10 01:18:01;;;;;;;;;;;9.00;99.90;;;;;;2616035;54;19958;-71
2023/12/10 01:20:31;;;;;;;;;;;9.00;99.90;;;;;;2615181;54;19998;-70
2023/12/10 01:23:04;;;;;;;;;;;9.00;99.90;;;;;;2615705;54;19981;-70
2023/12/10 01:25:34;;;;;;;;;;;9.00;99.90;;;;;;2615092;47;19951;-70
2023/12/10 01:28:04;;;;;;;;;;;9.00;99.90;;;;;;2615326;54;19946;-70
2023/12/10 01:30:34;;;;;;;;;;;9.00;99.90;;;;;;2616170;54;20046;-70
2023/12/10 01:33:01;;;;;;;;;;;9.00;99.90;;;;;;2616357;54;19935;-70
2023/12/10 01:35:31;;;;;;;;;;;9.00;99.90;;;;;;2614992;39;20388;-70
2023/12/10 01:38:03;;;;;;;;;;;9.00;99.90;;;;;;2615951;54;19950;-71
2023/12/10 01:40:33;;;;;;;;;;;8.90;99.90;;;;;;2615829;54;19953;-71
2023/12/10 01:43:07;;;;;;;;;;;9.00;99.90;;;;;;2615327;54;19939;-71
2023/12/10 01:45:36;;;;;;;;;;;9.00;99.90;;;;;;2615689;54;19951;-70
2023/12/10 01:48:07;;;;;;;;;;;9.00;99.90;;;;;;2615973;54;19965;-70
2023/12/10 01:50:38;;;;;;;;;;;8.90;99.90;;;;;;2615083;54;19953;-70
2023/12/10 01:53:11;;;;;;;;;;;9.00;99.90;;;;;;2615076;54;20085;-71
2023/12/10 01:55:41;;;;;;;;;;;8.90;99.90;;;;;;2615002;54;20737;-70
2023/12/10 01:58:11;;;;;;;;;;;8.90;99.90;;;;;;2615390;47;19947;-70
2023/12/10 02:00:41;;;;;;;;;;;8.90;99.90;;;;;;2615518;54;19939;-71
2023/12/10 02:03:11;;;;;;;;;;;9.00;99.90;;;;;;2615789;54;19969;-70
2023/12/10 02:05:41;;;;;;;;;;;9.00;99.90;;;;;;2615808;47;20037;-71
2023/12/10 02:08:13;;;;;;;;;;;9.00;99.90;;;;;;2616877;47;20034;-72
2023/12/10 02:10:43;;;;;;;;;;;8.90;99.90;;;;;;2615784;47;19951;-71
2023/12/10 02:13:12;;;;;;;;;;;9.00;99.90;;;;;;2616001;54;19945;-71
2023/12/10 02:15:43;;;;;;;;;;;9.00;99.90;;;;;;2616061;54;20832;-71
2023/12/10 02:18:12;;;;;;;;;;;9.00;99.90;;;;;;2616217;54;19939;-70
2023/12/10 02:20:42;;;;;;;;;;;9.00;99.90;;;;;;2616200;54;19953;-71
2023/12/10 02:23:20;;;;;;;;;;;8.90;99.90;;;;;;2615563;54;19953;-70
2023/12/10 02:25:52;;;;;;;;;;;9.00;99.90;;;;;;2615597;54;19939;-71
2023/12/10 02:28:22;;;;;;;;;;;8.90;99.90;;;;;;2616028;54;19958;-70
2023/12/10 02:30:52;;;;;;;;;;;8.90;99.90;;;;;;2616345;47;19934;-71
2023/12/10 02:33:22;;;;;;;;;;;8.10;99.90;;;;;;2615668;46;19951;-71
2023/12/10 02:35:52;;;;;;;;;;;9.00;99.90;;;;;;2615315;47;19938;-71
2023/12/10 02:38:22;;;;;;;;;;;9.00;99.90;;;;;;2616063;54;20449;-71
2023/12/10 02:40:54;;;;;;;;;;;9.00;99.90;;;;;;2616266;54;19953;-71
2023/12/10 02:43:24;;;;;;;;;;;9.00;99.90;;;;;;2615001;47;20035;-71
2023/12/10 02:45:54;;;;;;;;;;;9.00;99.90;;;;;;2614722;54;19946;-71
2023/12/10 02:48:24;;;;;;;;;;;9.00;99.90;;;;;;2615244;54;19939;-72
2023/12/10 02:50:55;;;;;;;;;;;9.00;99.90;;;;;;2615400;54;19953;-71
2023/12/10 02:53:24;;;;;;;;;;;9.00;99.90;;;;;;2616666;39;20365;-71
2023/12/10 02:55:57;;;;;;;;;;;9.10;99.90;;;;;;2616197;54;20464;-72
2023/12/10 02:58:27;;;;;;;;;;;8.90;99.90;;;;;;2615942;51;20038;-70
2023/12/10 03:00:56;;;;;;;;;;;8.90;99.90;;;;;;2615787;54;20504;-71
2023/12/10 03:03:26;;;;;;;;;;;8.80;99.90;;;;;;2615427;54;19950;-71
2023/12/10 03:05:56;;;;;;;;;;;8.90;99.90;;;;;;2616501;54;20022;-70
2023/12/10 03:08:26;;;;;;;;;;;8.90;99.90;;;;;;2615701;54;19947;-71
2023/12/10 03:10:58;;;;;;;;;;;8.90;99.90;;;;;;2616165;54;19962;-71
2023/12/10 03:13:27;;;;;;;;;;;8.90;99.90;;;;;;2615843;54;19958;-71
2023/12/10 03:15:57;;;;;;;;;;;8.90;99.90;;;;;;2616239;47;19939;-71
2023/12/10 03:18:27;;;;;;;;;;;9.10;99.90;;;;;;2615730;54;19973;-70
2023/12/10 03:20:56;;;;;;;;;;;8.90;99.90;;;;;;2616200;54;19947;-70
2023/12/10 03:23:26;;;;;;;;;;;8.90;99.90;;;;;;2615885;54;19946;-71
2023/12/10 03:25:58;;;;;;;;;;;8.90;99.90;;;;;;2616375;39;20340;-70
2023/12/10 03:28:28;;;;;;;;;;;8.90;99.90;;;;;;2616417;39;20014;-70
2023/12/10 03:30:57;;;;;;;;;;;8.90;99.90;;;;;;2616130;46;20011;-70
2023/12/10 03:33:27;;;;;;;;;;;8.90;99.90;;;;;;2614330;54;19951;-71
2023/12/10 03:35:57;;;;;;;;;;;9.00;99.90;;;;;;2616643;39;20388;-70
2023/12/10 03:38:26;;;;;;;;;;;8.90;99.90;;;;;;2617318;39;20369;-71
2023/12/10 03:40:59;;;;;;;;;;;8.90;99.90;;;;;;2615875;54;19973;-70
2023/12/10 03:43:28;;;;;;;;;;;9.00;99.90;;;;;;2615491;54;19950;-71
2023/12/10 03:45:58;;;;;;;;;;;8.90;99.90;;;;;;2616448;46;19974;-70
2023/12/10 03:48:28;;;;;;;;;;;8.90;99.90;;;;;;2615651;54;19957;-70
2023/12/10 03:50:57;;;;;;;;;;;8.90;99.90;;;;;;2615886;54;19962;-70
2023/12/10 03:53:27;;;;;;;;;;;8.80;99.90;;;;;;2616261;54;19978;-71
2023/12/10 03:55:59;;;;;;;;;;;9.00;99.90;;;;;;2616017;47;19969;-70
2023/12/10 03:58:29;;;;;;;;;;;8.80;99.90;;;;;;2615893;47;19955;-71
2023/12/10 04:00:59;;;;;;;;;;;8.70;99.90;;;;;;2615231;54;19938;-70
2023/12/10 04:03:28;;;;;;;;;;;8.70;99.90;;;;;;2614256;47;19997;-70
2023/12/10 04:05:58;;;;;;;;;;;8.70;99.90;;;;;;2616713;39;20433;-72
2023/12/10 04:08:28;;;;;;;;;;;8.70;99.90;;;;;;2616011;54;19946;-70
2023/12/10 04:11:00;;;;;;;;;;;8.60;99.90;;;;;;2615102;54;19957;-70
2023/12/10 04:13:29;;;;;;;;;;;8.70;99.90;;;;;;2615491;54;20049;-70
2023/12/10 04:16:00;;;;;;;;;;;8.50;99.90;;;;;;2615888;54;19942;-71
2023/12/10 04:18:29;;;;;;;;;;;8.60;99.90;;;;;;2615523;54;21145;-70
2023/12/10 04:21:00;;;;;;;;;;;8.70;99.90;;;;;;2615383;54;19957;-71
2023/12/10 04:23:30;;;;;;;;;;;8.60;99.90;;;;;;2615970;54;19947;-70
2023/12/10 04:26:02;;;;;;;;;;;8.60;99.90;;;;;;2614230;54;19954;-70
2023/12/10 04:28:32;;;;;;;;;;;8.60;99.90;;;;;;2618411;47;19945;-70
2023/12/10 04:31:02;;;;;;;;;;;8.60;99.90;;;;;;2618263;47;19953;-70
2023/12/10 04:33:32;;;;;;;;;;;8.60;99.90;;;;;;2618095;39;20399;-70
2023/12/10 04:36:03;;;;;;;;;;;8.60;99.90;;;;;;2617403;54;19947;-70
2023/12/10 04:38:33;;;;;;;;;;;8.70;99.90;;;;;;2616863;54;19947;-70
2023/12/10 04:41:05;;;;;;;;;;;8.70;99.90;;;;;;2615273;47;19953;-71
2023/12/10 04:43:35;;;;;;;;;;;8.60;99.90;;;;;;2612432;47;20034;-72
2023/12/10 04:46:05;;;;;;;;;;;8.70;99.90;;;;;;2615602;54;19994;-71
2023/12/10 04:48:35;;;;;;;;;;;9.90;99.90;;;;;;2615460;47;20705;-71
2023/12/10 04:51:05;;;;;;;;;;;8.80;99.90;;;;;;2615222;47;20064;-71
2023/12/10 04:53:34;;;;;;;;;;;8.70;99.90;;;;;;2616375;54;20426;-71
2023/12/10 04:56:07;;;;;;;;;;;8.60;99.90;;;;;;2614725;54;19949;-72
2023/12/10 04:58:37;;;;;;;;;;;8.60;99.90;;;;;;2615101;47;19961;-72
2023/12/10 05:01:07;;;;;;;;;;;8.60;99.90;;;;;;2614912;47;21000;-72
2023/12/10 05:03:37;;;;;;;;;;;8.50;99.90;;;;;;2616094;39;20330;-71
2023/12/10 05:06:07;;;;;;;;;;;8.60;99.90;;;;;;2615598;54;19947;-72
2023/12/10 05:08:37;;;;;;;;;;;8.60;99.90;;;;;;2616241;54;20529;-71
2023/12/10 05:11:09;;;;;;;;;;;8.70;99.90;;;;;;2616953;54;19947;-70
2023/12/10 05:13:39;;;;;;;;;;;8.60;99.90;;;;;;2616385;39;20376;-71
2023/12/10 05:16:09;;;;;;;;;;;8.60;99.90;;;;;;2615907;54;19954;-73
2023/12/10 05:18:39;;;;;;;;;;;8.60;99.90;;;;;;2615431;46;19977;-72
2023/12/10 05:21:09;;;;;;;;;;;8.60;99.90;;;;;;2615805;54;20510;-71
2023/12/10 05:23:39;;;;;;;;;;;8.60;99.90;;;;;;2615677;54;19939;-72
2023/12/10 05:26:12;;;;;;;;;;;8.60;99.90;;;;;;2615720;39;20330;-71
2023/12/10 05:28:41;;;;;;;;;;;8.70;99.90;;;;;;2615520;54;19946;-71
2023/12/10 05:31:11;;;;;;;;;;;8.70;99.90;;;;;;2614928;54;19939;-72
2023/12/10 05:36:15;;;;;;;;;;;8.70;99.90;;;;;;2615455;54;19964;-71
2023/12/10 05:38:45;;;;;;;;;;;8.60;99.90;;;;;;2615266;54;19973;-70
2023/12/10 05:41:17;;;;;;;;;;;8.70;99.90;;;;;;2614473;54;19961;-71
2023/12/10 05:43:47;;;;;;;;;;;8.70;99.90;;;;;;2616294;47;19943;-72
2023/12/10 05:46:16;;;;;;;;;;;8.70;99.90;;;;;;2615789;54;20058;-71
2023/12/10 05:48:46;;;;;;;;;;;8.70;99.90;;;;;;2616202;54;20030;-71
2023/12/10 05:51:16;;;;;;;;;;;8.80;99.90;;;;;;2616163;48;19969;-72
2023/12/10 05:53:46;;;;;;;;;;;8.70;99.90;;;;;;2616001;47;19942;-71
2023/12/10 05:56:18;;;;;;;;;;;8.80;99.90;;;;;;2617627;46;19968;-72
2023/12/10 05:58:48;;;;;;;;;;;8.70;99.90;;;;;;2616544;47;19942;-71
2023/12/10 06:01:18;;;;;;;;;;;8.70;99.90;;;;;;2616556;54;19946;-71
2023/12/10 06:03:47;;;;;;;;;;;8.70;99.90;;;;;;2616624;54;19950;-71
2023/12/10 06:06:17;;;;;;;;;;;8.70;99.90;;;;;;2617866;47;19947;-71
2023/12/10 06:08:47;;;;;;;;;;;8.70;99.90;;;;;;2617435;39;21386;-71
2023/12/10 06:11:19;;;;;;;;;;;8.70;99.90;;;;;;2617971;54;19947;-71
2023/12/10 06:13:49;;;;;;;;;;;8.70;99.90;;;;;;2617802;54;19950;-70
2023/12/10 06:16:18;;;;;;;;;;;8.70;99.90;;;;;;2618169;54;19935;-71
2023/12/10 06:18:48;;;;;;;;;;;8.70;99.90;;;;;;2615641;54;19946;-71
2023/12/10 06:21:18;;;;;;;;;;;8.70;99.90;;;;;;2617367;54;19947;-71
2023/12/10 06:23:48;;;;;;;;;;;8.70;99.90;;;;;;2617326;54;19997;-70
2023/12/10 06:26:21;;;;;;;;;;;8.80;99.90;;;;;;2617484;54;19957;-71
2023/12/10 06:28:50;;;;;;;;;;;8.70;99.90;;;;;;2615955;54;19943;-71
2023/12/10 06:31:20;;;;;;;;;;;8.70;99.90;;;;;;2616758;39;20730;-71
2023/12/10 06:33:50;;;;;;;;;;;8.80;99.90;;;;;;2615071;54;20476;-70
2023/12/10 06:36:19;;;;;;;;;;;8.70;99.90;;;;;;2616204;39;20340;-71
2023/12/10 06:38:49;;;;;;;;;;;8.70;99.90;;;;;;2616538;54;20070;-71
2023/12/10 06:41:21;;;;;;;;;;;8.70;99.90;;;;;;2615921;47;20094;-71
2023/12/10 06:43:51;;;;;;;;;;;8.70;99.90;;;;;;2615668;47;19958;-71
2023/12/10 06:46:21;;;;;;;;;;;8.60;99.90;;;;;;2616418;39;20416;-71
2023/12/10 06:48:51;;;;;;;;;;;8.60;99.90;;;;;;2615586;39;20345;-71
2023/12/10 06:51:21;;;;;;;;;;;8.60;99.90;;;;;;2615704;47;19963;-71
2023/12/10 06:53:51;;;;;;;;;;;8.60;99.90;;;;;;2616338;54;20448;-71
2023/12/10 06:56:23;;;;;;;;;;;8.60;99.90;;;;;;2615573;54;19946;-71
2023/12/10 06:58:53;;;;;;;;;;;8.60;99.90;;;;;;2615288;47;19941;-71
2023/12/10 07:01:23;;;;;;;;;;;8.60;99.90;;;;;;2619145;47;19947;-71
2023/12/10 07:03:59;;;;;;;;;;;9.00;99.90;;;;;;2619698;47;19950;-72
2023/12/10 07:06:28;;;;;;;;;;;8.60;99.90;;;;;;2616615;54;19950;-70
2023/12/10 07:08:58;;;;;;;;;;;8.60;99.90;;;;;;2615635;47;19966;-70
2023/12/10 07:11:31;;;;;;;;;;;8.60;99.90;;;;;;2616249;54;20034;-74
2023/12/10 07:14:00;;;;;;;;;;;8.50;99.90;;;;;;2615353;47;20497;-70
2023/12/10 07:16:30;;;;;;;;;;;8.60;99.90;;;;;;2615939;47;19945;-70
2023/12/10 07:19:00;;;;;;;;;;;8.60;99.90;;;;;;2614703;54;19947;-70
2023/12/10 07:21:30;;;;;;;;;;;8.60;99.90;;;;;;2616374;47;19947;-76
2023/12/10 07:23:59;;;;;;;;;;;8.60;99.90;;;;;;2615479;46;19950;-71
2023/12/10 07:26:32;;;;;;;;;;;8.60;99.90;;;;;;2615859;47;20655;-70
2023/12/10 07:29:02;;;;;;;;;;;8.60;99.90;;;;;;2615702;47;20021;-70
2023/12/10 07:31:31;;;;;;;;;;;8.60;99.90;;;;;;2616981;47;20046;-69
2023/12/10 07:34:01;;;;;;;;;;;8.60;99.90;;;;;;2617248;49;19946;-72
2023/12/10 07:36:31;;;;;;;;;;;8.60;99.90;;;;;;2621291;54;19954;-69
2023/12/10 07:39:01;;;;;;;;;;;8.60;99.90;;;;;;2621782;54;19950;-68
2023/12/10 07:41:33;;;;;;;;;;;8.60;99.90;;;;;;2626250;51;19982;-68
2023/12/10 07:44:03;;;;;;;;;;;8.70;99.90;;;;;;2626857;46;19994;-69
2023/12/10 07:46:33;;;;;;;;;;;8.70;99.90;;;;;;2626123;47;19938;-71
2023/12/10 07:49:02;;;;;;;;;;;8.60;99.90;;;;;;2621159;54;19935;-71
2023/12/10 07:51:32;;;;;;;;;;;8.70;99.90;;;;;;2622047;54;20588;-72
2023/12/10 07:54:02;;;;;;;;;;;8.80;99.90;;;;;;2622016;47;20046;-71
2023/12/10 07:56:35;;;;;;;;;;;8.80;99.90;;;;;;2622629;54;19957;-72
2023/12/10 07:59:05;;;;;;;;;;;8.90;99.90;;;;;;2619178;47;19949;-71
2023/12/10 08:01:35;;;;;;;;;;;9.00;99.90;;;;;;2620817;47;19973;-72
2023/12/10 08:04:04;;;;;;;;;;;8.90;99.90;;;;;;2621689;39;20741;-72
2023/12/10 08:06:34;;;;;;;;;;;8.80;99.90;;;;;;2620430;54;19947;-71
2023/12/10 08:09:05;;;;;;;;;;;9.00;99.90;;;;;;2619711;47;19958;-71
2023/12/10 08:11:38;;;;;;;;;;;8.90;99.90;;;;;;2620668;54;20512;-72
2023/12/10 08:14:09;;;;;;;;;;;8.90;99.90;;;;;;2617153;54;19970;-70
2023/12/10 08:16:39;;;;;;;;;;;8.90;99.90;;;;;;2617385;39;20384;-69
2023/12/10 08:21:36;;;;;;;;;;;8.90;99.90;;;;;;2601252;47;20053;-71
2023/12/10 08:24:07;;;;;;;;;;;9.00;99.90;;;;;;2596886;47;20618;-71
2023/12/10 08:26:39;;;;;;;;;;;9.00;99.90;;;;;;2602328;54;19962;-71
2023/12/10 08:29:09;;;;;;;;;;;9.00;99.90;;;;;;2601316;47;19973;-71
2023/12/10 08:31:38;;;;;;;;;;;9.00;99.90;;;;;;2598943;47;19953;-73
2023/12/10 08:34:08;;;;;;;;;;;9.10;99.90;;;;;;2600204;39;20475;-72
2023/12/10 08:36:38;;;;;;;;;;;9.10;99.90;;;;;;2600411;54;19954;-72
2023/12/10 08:39:08;;;;;;;;;;;9.10;99.90;;;;;;2599178;54;19965;-74
2023/12/10 08:41:41;;;;;;;;;;;9.10;99.90;;;;;;2598845;47;21396;-72
2023/12/10 08:44:11;;;;;;;;;;;9.20;99.90;;;;;;2596794;54;20050;-70
2023/12/10 08:46:41;;;;;;;;;;;9.20;99.90;;;;;;2596135;47;19947;-70
2023/12/10 08:49:11;;;;;;;;;;;9.20;99.90;;;;;;2595956;54;19958;-70
2023/12/10 08:51:44;;;;;;;;;;;9.20;99.90;;;;;;2597659;47;20007;-70
2023/12/10 08:54:14;;;;;;;;;;;9.30;99.90;;;;;;2596605;47;19974;-71
2023/12/10 08:56:47;;;;;;;;;;;9.30;99.90;;;;;;2593181;54;19963;-73
2023/12/10 08:59:16;;;;;;;;;;;9.30;99.90;;;;;;2598372;47;19957;-70
2023/12/10 09:01:46;;;;;;;;;;;9.30;99.90;;;;;;2594286;50;19954;-71
2023/12/10 09:04:16;;;;;;;;;;;9.40;99.90;;;;;;2597581;47;20445;-69
2023/12/10 09:06:46;;;;;;;;;;;9.40;99.90;;;;;;2597490;54;19954;-70
2023/12/10 09:09:16;;;;;;;;;;;9.40;99.90;;;;;;2600686;54;19973;-71
2023/12/10 09:11:48;;;;;;;;;;;9.40;99.90;;;;;;2599615;47;19947;-71
2023/12/10 09:14:18;;;;;;;;;;;9.40;99.90;;;;;;2597977;47;19958;-71
2023/12/10 09:16:48;;;;;;;;;;;9.50;99.90;;;;;;2598722;47;19950;-69
2023/12/10 09:19:17;;;;;;;;;;;9.60;99.90;;;;;;2596891;47;20069;-71
2023/12/10 09:21:47;;;;;;;;;;;9.60;99.90;;;;;;2599158;47;20034;-70
2023/12/10 09:24:17;;;;;;;;;;;9.60;99.90;;;;;;2598179;54;19961;-70
2023/12/10 09:26:49;;;;;;;;;;;9.70;99.90;;;;;;2598365;54;19998;-70
2023/12/10 09:29:19;;;;;;;;;;;9.70;99.90;;;;;;2598721;54;22045;-72
2023/12/10 09:31:49;;;;;;;;;;;9.80;99.90;;;;;;2598439;50;20449;-71
2023/12/10 09:34:19;;;;;;;;;;;9.80;99.90;;;;;;2598384;54;20469;-70
2023/12/10 09:36:52;;;;;;;;;;;9.90;99.90;;;;;;2599501;47;19951;-71
2023/12/10 09:39:22;;;;;;;;;;;10.00;99.90;;;;;;2599018;47;19951;-70
2023/12/10 09:41:54;;;;;;;;;;;10.10;99.90;;;;;;2597818;54;19954;-70
2023/12/10 09:44:24;;;;;;;;;;;10.10;99.90;;;;;;2599392;54;19954;-70
2023/12/10 09:46:53;;;;;;;;;;;10.10;99.90;;;;;;2597740;54;19953;-70
2023/12/10 09:49:27;;;;;;;;;;;10.20;99.90;;;;;;2599489;54;20458;-70
2023/12/10 09:51:56;;;;;;;;;;;10.20;99.90;;;;;;2601746;39;20381;-69
2023/12/10 09:54:27;;;;;;;;;;;10.20;99.90;;;;;;2601815;54;19962;-69
2023/12/10 09:57:01;;;;;;;;;;;10.30;99.90;;;;;;2602271;54;19957;-71
2023/12/10 09:59:31;;;;;;;;;;;10.20;99.90;;;;;;2599459;54;19988;-73
2023/12/10 10:02:01;;;;;;;;;;;10.20;99.90;;;;;;2597271;47;19950;-70
2023/12/10 10:04:31;;;;;;;;;;;10.20;99.90;;;;;;2598343;39;20006;-71
2023/12/10 10:07:00;;;;;;;;;;;10.10;99.90;;;;;;2599392;54;19943;-70
2023/12/10 10:09:31;;;;;;;;;;;10.30;99.90;;;;;;2598107;54;19957;-71
2023/12/10 10:12:12;;;;;;;;;;;10.40;99.90;;;;;;2599230;54;19962;-69
2023/12/10 10:14:42;;;;;;;;;;;10.40;99.90;;;;;;2597111;54;19946;-69
2023/12/10 10:17:12;;;;;;;;;;;10.50;99.90;;;;;;2604264;47;19958;-71
2023/12/10 10:19:42;;;;;;;;;;;10.60;99.90;;;;;;2612599;54;19951;-70
2023/12/10 10:22:12;;;;;;;;;;;10.70;99.90;;;;;;2615738;47;19985;-72
2023/12/10 10:24:42;;;;;;;;;;;10.70;99.90;;;;;;2613111;54;19963;-71
2023/12/10 10:27:14;;;;;;;;;;;10.80;99.90;;;;;;2617421;47;19935;-74
2023/12/10 10:29:44;;;;;;;;;;;10.90;99.90;;;;;;2618739;47;19950;-71
2023/12/10 10:32:15;;;;;;;;;;;10.80;99.90;;;;;;2615094;54;19947;-71
2023/12/10 10:34:46;;;;;;;;;;;10.90;99.90;;;;;;2615912;54;19946;-72
2023/12/10 10:37:16;;;;;;;;;;;11.00;99.90;;;;;;2614713;54;20433;-74
2023/12/10 10:39:48;;;;;;;;;;;11.00;99.90;;;;;;2616365;54;19970;-73
2023/12/10 10:42:20;;;;;;;;;;;11.00;99.90;;;;;;2615962;54;19953;-73
2023/12/10 10:44:50;;;;;;;;;;;11.10;99.90;;;;;;2616158;39;20350;-72
2023/12/10 10:47:20;;;;;;;;;;;11.20;99.90;;;;;;2611406;54;19946;-73
2023/12/10 10:49:54;;;;;;;;;;;11.20;99.90;;;;;;2615146;54;19947;-74
2023/12/10 10:52:44;;;;;;;;;;;11.20;99.90;;;;;;2616561;31;20444;-73
2023/12/10 10:55:14;;;;;;;;;;;11.20;99.90;;;;;;2614284;47;19950;-74
2023/12/10 10:57:47;;;;;;;;;;;11.20;99.90;;;;;;2613572;54;19961;-73
2023/12/10 11:00:31;;;;;;;;;;;11.10;99.90;;;;;;2615700;54;19994;-74
2023/12/10 11:03:04;;;;;;;;;;;11.10;99.90;;;;;;2617337;51;19955;-73
2023/12/10 11:05:34;;;;;;;;;;;11.10;99.90;;;;;;2618000;47;20069;-73
2023/12/10 11:08:06;;;;;;;;;;;11.20;99.90;;;;;;2617971;54;19935;-73
2023/12/10 11:10:36;;;;;;;;;;;11.30;99.90;;;;;;2617555;47;19947;-73
2023/12/10 11:13:08;;;;;;;;;;;11.40;99.90;;;;;;2616048;46;19946;-72
2023/12/10 11:15:38;;;;;;;;;;;11.50;99.90;;;;;;2618082;54;19950;-73
2023/12/10 11:18:08;;;;;;;;;;;11.50;99.90;;;;;;2617141;47;19966;-73
2023/12/10 11:20:43;;;;;;;;;;;11.60;99.90;;;;;;2618291;54;19950;-73
2023/12/10 11:23:13;;;;;;;;;;;11.50;99.90;;;;;;2617622;54;19953;-73
2023/12/10 11:25:43;;;;;;;;;;;11.50;99.90;;;;;;2616742;47;19953;-72
2023/12/10 11:28:17;;;;;;;;;;;11.50;99.90;;;;;;2616586;47;19946;-73
2023/12/10 11:30:48;;;;;;;;;;;11.50;99.90;;;;;;2617977;47;19949;-74
2023/12/10 11:33:18;;;;;;;;;;;11.50;99.90;;;;;;2615675;54;19990;-73
2023/12/10 11:35:48;;;;;;;;;;;11.30;99.90;;;;;;2617895;47;19990;-73
2023/12/10 11:38:38;;;;;;;;;;;11.30;99.90;;;;;;2618438;47;19950;-74
2023/12/10 11:41:07;;;;;;;;;;;11.40;99.90;;;;;;2617291;54;19945;-73
2023/12/10 11:43:42;;;;;;;;;;;11.40;99.90;;;;;;2617627;46;19966;-73
2023/12/10 11:46:11;;;;;;;;;;;11.40;99.90;;;;;;2617260;54;19996;-73
2023/12/10 11:48:41;;;;;;;;;;;11.30;99.90;;;;;;2615910;54;19953;-74
2023/12/10 11:51:11;;;;;;;;;;;11.30;99.90;;;;;;2616701;54;19947;-73
2023/12/10 11:53:40;;;;;;;;;;;11.20;99.90;;;;;;2617625;47;19946;-74
2023/12/10 11:56:10;;;;;;;;;;;11.20;99.90;;;;;;2615960;54;19951;-73
2023/12/10 11:58:46;;;;;;;;;;;11.20;99.90;;;;;;2617253;47;20057;-73
2023/12/10 12:01:18;;;;;;;;;;;11.30;99.90;;;;;;2615928;54;20516;-73
2023/12/10 12:03:49;;;;;;;;;;;11.30;99.90;;;;;;2616944;54;19943;-73
2023/12/10 12:06:19;;;;;;;;;;;11.30;99.90;;;;;;2617239;47;19942;-73
2023/12/10 12:08:49;;;;;;;;;;;11.30;99.90;;;;;;2617587;54;19957;-73
2023/12/10 12:11:19;;;;;;;;;;;11.30;99.90;;;;;;2616178;47;20450;-72
2023/12/10 12:13:54;;;;;;;;;;;11.30;99.90;;;;;;2617604;39;20059;-74
2023/12/10 12:16:24;;;;;;;;;;;11.30;99.90;;;;;;2617180;47;20501;-74
2023/12/10 12:18:53;;;;;;;;;;;11.30;99.90;;;;;;2617005;54;19938;-73
2023/12/10 12:21:23;;;;;;;;;;;11.30;99.90;;;;;;2617034;54;19946;-73
2023/12/10 12:23:53;;;;;;;;;;;11.30;99.90;;;;;;2617034;54;20046;-73
2023/12/10 12:26:23;;;;;;;;;;;11.40;99.90;;;;;;2615505;54;19972;-73
2023/12/10 12:28:55;;;;;;;;;;;11.40;99.90;;;;;;2616654;54;19942;-73
2023/12/10 12:31:25;;;;;;;;;;;11.40;99.90;;;;;;2616668;47;19946;-73
2023/12/10 12:33:54;;;;;;;;;;;11.40;99.90;;;;;;2616888;54;19947;-73
2023/12/10 12:36:24;;;;;;;;;;;11.40;99.90;;;;;;2617521;47;19958;-73
2023/12/10 12:38:54;;;;;;;;;;;11.30;99.90;;;;;;2616517;47;19935;-74
2023/12/10 12:41:23;;;;;;;;;;;11.30;99.90;;;;;;2618116;54;19939;-73
2023/12/10 12:43:56;;;;;;;;;;;11.20;99.90;;;;;;2620684;54;19946;-73
2023/12/10 12:46:25;;;;;;;;;;;11.30;99.90;;;;;;2617271;47;19947;-74
2023/12/10 12:48:55;;;;;;;;;;;11.30;99.90;;;;;;2616888;47;19946;-73
2023/12/10 12:51:25;;;;;;;;;;;11.30;99.90;;;;;;2617476;39;20353;-74
2023/12/10 12:53:54;;;;;;;;;;;11.30;99.90;;;;;;2615977;47;20044;-73
2023/12/10 12:56:44;;;;;;;;;;;11.30;99.90;;;;;;2616358;49;19954;-73
2023/12/10 12:59:17;;;;;;;;;;;11.30;99.90;;;;;;2616304;54;20455;-73
2023/12/10 13:01:47;;;;;;;;;;;11.30;99.90;;;;;;2616910;54;19954;-73
2023/12/10 13:04:16;;;;;;;;;;;11.30;99.90;;;;;;2615442;54;19947;-73
2023/12/10 13:06:46;;;;;;;;;;;11.20;99.90;;;;;;2617327;47;19950;-73
2023/12/10 13:09:17;;;;;;;;;;;11.20;99.90;;;;;;2615773;54;19946;-73
2023/12/10 13:11:48;;;;;;;;;;;11.20;99.90;;;;;;2616743;47;19951;-73
2023/12/10 13:14:20;;;;;;;;;;;11.10;99.90;;;;;;2616453;54;19938;-73
2023/12/10 13:16:50;;;;;;;;;;;11.10;99.90;;;;;;2616830;54;20030;-74
2023/12/10 13:19:20;;;;;;;;;;;11.10;99.90;;;;;;2616362;54;19952;-73
2023/12/10 13:21:51;;;;;;;;;;;11.10;99.90;;;;;;2616760;54;19986;-74
2023/12/10 13:24:22;;;;;;;;;;;11.00;99.90;;;;;;2615986;54;19946;-73
2023/12/10 13:26:51;;;;;;;;;;;11.00;99.90;;;;;;2616374;47;20051;-73
2023/12/10 13:29:24;;;;;;;;;;;11.00;99.90;;;;;;2617044;47;19945;-73
2023/12/10 13:31:53;;;;;;;;;;;10.90;99.90;;;;;;2617235;54;19941;-73
2023/12/10 13:34:23;;;;;;;;;;;10.90;99.90;;;;;;2616528;47;20033;-73
2023/12/10 13:36:53;;;;;;;;;;;10.90;99.90;;;;;;2615107;47;21830;-73
2023/12/10 13:39:23;;;;;;;;;;;10.90;99.90;;;;;;2616320;47;19946;-73
2023/12/10 13:41:52;;;;;;;;;;;10.80;99.90;;;;;;2616716;54;20014;-73
2023/12/10 13:44:25;;;;;;;;;;;10.80;99.90;;;;;;2617208;47;19957;-73
2023/12/10 13:46:54;;;;;;;;;;;10.70;99.90;;;;;;2617836;47;19939;-73
2023/12/10 13:49:24;;;;;;;;;;;10.70;99.90;;;;;;2616213;47;19981;-73
2023/12/10 13:51:54;;;;;;;;;;;10.70;99.90;;;;;;2617061;54;20007;-75
2023/12/10 13:54:23;;;;;;;;;;;10.70;99.90;;;;;;2617001;54;20473;-74
2023/12/10 13:56:53;;;;;;;;;;;10.80;99.90;;;;;;2617943;54;19986;-74
2023/12/10 13:59:26;;;;;;;;;;;10.70;99.90;;;;;;2617568;46;19946;-73
2023/12/10 14:01:55;;;;;;;;;;;10.70;99.90;;;;;;2618107;53;19938;-73
2023/12/10 14:04:25;;;;;;;;;;;10.70;99.90;;;;;;2617688;47;19947;-74
2023/12/10 14:06:55;;;;;;;;;;;10.70;99.90;;;;;;2618613;54;20034;-73
2023/12/10 14:09:24;;;;;;;;;;;10.70;99.90;;;;;;2615444;47;20464;-73
2023/12/10 14:11:54;;;;;;;;;;;10.70;99.90;;;;;;2618497;31;20454;-74
2023/12/10 14:14:26;;;;;;;;;;;10.70;99.90;;;;;;2617815;47;20441;-74
2023/12/10 14:16:56;;;;;;;;;;;10.70;99.90;;;;;;2618466;54;20193;-73
2023/12/10 14:19:25;;;;;;;;;;;10.70;99.90;;;;;;2616964;47;19942;-73
2023/12/10 14:21:55;;;;;;;;;;;10.70;99.90;;;;;;2618050;54;19935;-73
2023/12/10 14:24:25;;;;;;;;;;;10.70;99.90;;;;;;2616331;54;19994;-74
2023/12/10 14:26:54;;;;;;;;;;;10.70;99.90;;;;;;2617470;47;20457;-73
2023/12/10 14:29:27;;;;;;;;;;;10.70;99.90;;;;;;2616797;47;19946;-73
2023/12/10 14:31:56;;;;;;;;;;;10.70;99.90;;;;;;2617844;54;19946;-74
2023/12/10 14:34:26;;;;;;;;;;;10.60;99.90;;;;;;2617212;46;19942;-73
2023/12/10 14:36:56;;;;;;;;;;;10.60;99.90;;;;;;2617997;39;20240;-73
2023/12/10 14:39:26;;;;;;;;;;;10.70;99.90;;;;;;2616576;47;19955;-73
2023/12/10 14:41:56;;;;;;;;;;;10.60;99.90;;;;;;2617551;54;19946;-74
2023/12/10 14:44:28;;;;;;;;;;;10.60;99.90;;;;;;2618161;54;19954;-75
2023/12/10 14:46:58;;;;;;;;;;;10.80;99.90;;;;;;2618893;39;20341;-74
2023/12/10 14:49:29;;;;;;;;;;;10.60;99.90;;;;;;2616986;47;19958;-74